Terminal Aerodrome Forecast
Issued by NWS

Home | Current Version | Previous Version | Text Only | Print | Product List | Glossary On
Versions: 1 2 3 4 5 6 7 8 9 10 11 12 13 14 15 16
000
FTUS46 KLOX 272335
TAFSBP
TAF
KSBP 272335Z 2800/2824 32018G26KT P6SM SCT250
     FM280100 30012KT P6SM SCT250
     FM280300 VRB03KT P6SM SCT250
     FM281200 VRB03KT 2SM BR OVC002
     FM281700 VRB03KT 3SM BR BKN006
     FM281800 VRB03KT P6SM SKC
     FM282000 29008KT P6SM SKC=

USA.gov is the U.S. government's official web portal to all federal, state and local government web resources and services.